Time;durP1;ratioP1;P1;durP2;ratioP2;P2;SDS_P1;SDS_P2;PMS_P1;PMS_P2;Temp;Humidity;BMP_temperature;BMP_pressure;BME280_temperature;BME280_humidity;BME280_pressure;Samples;Min_cycle;Max_cycle;Signal;HPM_P1;HPM_P2
2022/06/07 00:01:09;;;;;;;2.33;1.10;;;;;;;19.98;76.46;99655.44;5056426;28;20868;-86
2022/06/07 00:03:35;;;;;;;2.60;1.23;;;;;;;19.95;76.33;99644.06;5055060;28;20453;-85
2022/06/07 00:06:01;;;;;;;2.03;1.13;;;;;;;20.13;75.96;99667.13;5048624;28;20883;-85
2022/06/07 00:08:27;;;;;;;1.25;0.88;;;;;;;20.03;76.42;99650.72;5052503;28;20068;-85
2022/06/07 00:10:53;;;;;;;2.85;1.30;;;;;;;19.99;76.46;99643.81;5066769;28;20421;-86
2022/06/07 00:13:18;;;;;;;0.90;0.75;;;;;;;20.06;76.31;99646.13;5067705;28;20036;-86
2022/06/07 00:15:44;;;;;;;2.13;1.30;;;;;;;20.10;76.64;99679.84;5067672;28;20043;-85
2022/06/07 00:18:11;;;;;;;1.30;1.00;;;;;;;19.87;77.16;99649.81;5067630;28;20033;-85
2022/06/07 00:20:39;;;;;;;0.98;0.70;;;;;;;20.03;77.80;99657.88;5062200;28;20769;-85
2022/06/07 00:23:08;;;;;;;1.58;0.90;;;;;;;20.04;77.54;99660.47;5048664;28;20033;-86
2022/06/07 00:25:34;;;;;;;1.63;1.23;;;;;;;19.98;77.56;99655.44;5057922;28;20048;-86
2022/06/07 00:28:00;;;;;;;6.05;2.60;;;;;;;20.00;77.75;99660.72;5052676;28;20498;-84
2022/06/07 00:30:26;;;;;;;1.45;1.02;;;;;;;20.08;77.29;99654.94;5068448;28;20044;-84
2022/06/07 00:32:53;;;;;;;1.73;1.00;;;;;;;19.84;76.37;99626.75;5049125;28;20029;-84
2022/06/07 00:35:19;;;;;;;2.67;1.65;;;;;;;19.64;77.62;99654.56;5048281;28;20784;-87
2022/06/07 00:37:44;;;;;;;4.20;1.10;;;;;;;19.91;75.97;99650.50;5052826;28;20779;-85
2022/06/07 00:40:11;;;;;;;2.05;1.63;;;;;;;19.94;75.95;99648.56;5068291;28;20025;-84
2022/06/07 00:42:37;;;;;;;1.02;0.95;;;;;;;20.06;75.75;99648.81;5064800;28;20037;-85
2022/06/07 00:45:03;;;;;;;1.42;1.25;;;;;;;20.12;75.20;99659.19;5047741;28;20119;-84
2022/06/07 00:47:31;;;;;;;1.15;1.02;;;;;;;20.05;75.04;99642.59;5047887;28;20086;-84
2022/06/07 00:50:12;;;;;;;1.13;0.90;;;;;;;20.11;75.51;99652.97;5054889;28;20036;-85
2022/06/07 00:52:38;;;;;;;2.30;1.50;;;;;;;20.01;75.17;99638.38;5067775;28;20047;-85
2022/06/07 00:55:07;;;;;;;2.13;1.13;;;;;;;20.04;74.99;99651.59;5056553;28;20049;-85
2022/06/07 00:57:34;;;;;;;3.25;2.00;;;;;;;19.91;75.34;99642.47;5055834;28;20127;-87
2022/06/07 01:00:00;;;;;;;1.80;1.10;;;;;;;20.00;75.57;99668.75;5065428;28;20067;-86
2022/06/07 01:02:25;;;;;;;0.88;0.80;;;;;;;19.99;75.95;99669.72;5067417;28;20089;-84
2022/06/07 01:04:51;;;;;;;1.52;1.38;;;;;;;19.76;75.89;99634.31;5048908;28;20056;-84
2022/06/07 01:12:46;;;;;;;1.52;0.95;;;;;;;19.79;76.75;99642.22;5054500;28;20110;-83
2022/06/07 01:15:12;;;;;;;1.73;1.58;;;;;;;19.75;76.75;99645.09;5047286;28;20104;-84
2022/06/07 01:17:37;;;;;;;1.30;1.17;;;;;;;19.52;77.66;99620.44;5059005;28;20468;-85
2022/06/07 01:20:04;;;;;;;2.20;0.93;;;;;;;19.86;77.28;99650.75;5064801;28;20501;-84
2022/06/07 01:22:30;;;;;;;1.00;0.90;;;;;;;19.79;77.17;99644.03;5047546;28;20108;-84
2022/06/07 01:24:56;;;;;;;1.23;0.88;;;;;;;19.79;77.18;99658.25;5046284;28;20490;-87
2022/06/07 01:27:22;;;;;;;2.92;1.05;;;;;;;19.62;76.92;99604.78;5056375;28;20036;-84
2022/06/07 01:29:47;;;;;;;1.05;1.00;;;;;;;19.83;76.78;99635.75;5067038;28;20055;-85
2022/06/07 01:32:13;;;;;;;1.30;1.20;;;;;;;19.78;76.31;99621.72;5067447;28;20106;-86
2022/06/07 01:34:42;;;;;;;2.22;1.33;;;;;;;19.75;76.83;99637.94;5067984;28;20028;-86
2022/06/07 01:37:10;;;;;;;0.70;0.70;;;;;;;19.35;78.50;99605.28;5067799;28;20097;-84
2022/06/07 01:42:21;;;;;;;1.02;0.95;;;;;;;19.62;76.62;99640.41;5067892;28;20862;-85
2022/06/07 01:44:47;;;;;;;3.55;1.52;;;;;;;19.72;75.98;99656.81;5066702;28;20039;-86
2022/06/07 01:47:20;;;;;;;1.95;1.48;;;;;;;19.64;75.79;99632.28;5055308;28;20259;-88
2022/06/07 01:49:46;;;;;;;1.23;1.00;;;;;;;19.59;76.96;99647.75;5046703;28;20497;-86
2022/06/07 01:52:14;;;;;;;1.55;1.05;;;;;;;19.80;75.55;99654.66;5058505;28;20036;-85
2022/06/07 01:54:39;;;;;;;1.05;0.95;;;;;;;19.85;75.13;99659.75;5067509;28;20036;-87
2022/06/07 01:57:05;;;;;;;1.90;1.27;;;;;;;19.60;75.60;99646.78;5064075;28;20394;-86
2022/06/07 01:59:32;;;;;;;1.52;1.33;;;;;;;19.40;75.96;99618.41;5066887;28;20107;-86
2022/06/07 02:01:58;;;;;;;1.20;1.08;;;;;;;19.56;75.82;99646.09;5067140;28;20033;-86
2022/06/07 02:04:24;;;;;;;1.40;0.88;;;;;;;19.72;75.70;99654.16;5057325;28;20040;-85
2022/06/07 02:06:50;;;;;;;4.32;1.85;;;;;;;19.66;75.76;99662.50;5054012;28;20049;-85
2022/06/07 02:09:17;;;;;;;1.48;1.05;;;;;;;19.74;74.64;99652.28;5065895;28;20422;-87
2022/06/07 02:11:43;;;;;;;1.92;1.02;;;;;;;19.77;74.29;99668.19;5066773;28;20025;-85
2022/06/07 02:14:10;;;;;;;1.45;1.10;;;;;;;19.56;75.02;99671.97;5047913;28;20028;-84
2022/06/07 02:16:36;;;;;;;1.88;1.08;;;;;;;19.64;74.20;99667.94;5055551;28;20068;-88
2022/06/07 02:19:01;;;;;;;2.28;1.30;;;;;;;19.82;74.35;99684.00;5066631;28;20449;-84
2022/06/07 02:21:27;;;;;;;1.75;1.20;;;;;;;19.48;74.83;99650.97;5066008;28;20028;-85
2022/06/07 02:23:53;;;;;;;1.30;1.15;;;;;;;19.49;75.55;99669.63;5065101;28;20422;-87
2022/06/07 02:26:24;;;;;;;1.83;0.98;;;;;;;19.66;74.40;99665.19;5057130;28;20040;-85
2022/06/07 02:29:01;;;;;;;1.30;1.08;;;;;;;19.64;73.54;99645.69;5046723;28;20033;-86
2022/06/07 02:31:30;;;;;;;1.23;1.13;;;;;;;19.65;73.76;99663.47;5045373;28;20072;-85
2022/06/07 02:33:57;;;;;;;3.53;2.17;;;;;;;19.56;74.41;99662.13;5048930;28;20042;-85
2022/06/07 02:36:24;;;;;;;1.42;1.25;;;;;;;19.61;74.24;99664.56;5045551;28;20041;-86
2022/06/07 02:38:50;;;;;;;1.77;0.93;;;;;;;19.75;73.70;99679.88;5049743;28;20040;-85
2022/06/07 02:41:21;;;;;;;7.30;1.38;;;;;;;19.68;73.78;99676.69;5049901;28;20040;-87
2022/06/07 02:43:47;;;;;;;1.13;1.05;;;;;;;19.58;73.96;99662.06;5050422;28;20043;-85
2022/06/07 02:46:12;;;;;;;2.03;1.23;;;;;;;19.50;74.42;99675.81;5061422;28;20033;-85
2022/06/07 02:48:38;;;;;;;1.48;1.17;;;;;;;19.55;74.01;99664.88;5069178;28;20465;-85
2022/06/07 02:51:04;;;;;;;1.40;0.90;;;;;;;19.28;73.06;99655.53;5050500;28;20048;-86
2022/06/07 02:53:29;;;;;;;1.40;0.70;;;;;;;19.53;73.91;99685.53;5050139;28;20568;-87
2022/06/07 02:55:55;;;;;;;1.10;1.00;;;;;;;19.48;73.41;99670.56;5049193;28;20731;-85
2022/06/07 02:58:20;;;;;;;1.08;0.95;;;;;;;19.42;73.52;99678.91;5050308;28;20039;-85
2022/06/07 03:00:46;;;;;;;1.40;0.95;;;;;;;19.29;73.91;99673.34;5052463;28;20032;-85
2022/06/07 03:03:11;;;;;;;2.35;1.15;;;;;;;19.14;74.71;99671.44;5054083;28;20033;-85
2022/06/07 03:05:38;;;;;;;1.27;1.00;;;;;;;19.22;75.19;99682.59;5049557;28;20068;-85
2022/06/07 03:08:04;;;;;;;5.03;1.02;;;;;;;19.45;74.31;99701.97;5062340;28;20036;-87
2022/06/07 03:10:29;;;;;;;1.33;0.95;;;;;;;19.27;73.87;99675.19;5059789;28;20163;-86
2022/06/07 03:12:55;;;;;;;1.30;0.90;;;;;;;19.48;73.23;99697.31;5050241;28;20029;-86
2022/06/07 03:15:20;;;;;;;0.80;0.68;;;;;;;19.26;73.18;99683.31;5049296;28;20044;-87
2022/06/07 03:17:46;;;;;;;1.27;0.80;;;;;;;19.01;73.87;99655.13;5049774;28;20033;-87
2022/06/07 03:20:13;;;;;;;2.33;1.33;;;;;;;19.44;72.87;99686.84;5056416;28;20480;-87
2022/06/07 03:22:38;;;;;;;3.33;1.40;;;;;;;19.60;70.82;99697.59;5068902;28;20032;-84
2022/06/07 03:25:06;;;;;;;1.17;0.82;;;;;;;19.55;70.73;99671.09;5069797;28;20540;-86
2022/06/07 03:27:32;;;;;;;1.42;1.33;;;;;;;19.77;70.47;99708.34;5069652;28;20040;-86
2022/06/07 03:29:58;;;;;;;2.25;1.33;;;;;;;19.74;69.84;99699.56;5063797;28;20047;-86
2022/06/07 03:32:25;;;;;;;1.27;0.90;;;;;;;19.72;69.67;99696.09;5049830;28;20524;-86
2022/06/07 03:34:50;;;;;;;1.60;0.80;;;;;;;19.72;70.55;99704.13;5061902;28;20516;-87
2022/06/07 03:37:16;;;;;;;0.85;0.60;;;;;;;19.82;70.38;99721.47;5068704;28;20040;-87
2022/06/07 03:39:43;;;;;;;1.52;0.95;;;;;;;19.85;69.52;99695.41;5069439;28;20028;-86
2022/06/07 03:42:09;;;;;;;0.73;0.63;;;;;;;19.95;68.95;99706.47;5067662;28;20083;-86
2022/06/07 03:44:34;;;;;;;3.22;1.10;;;;;;;19.67;69.70;99691.84;5061651;28;20434;-86
2022/06/07 03:47:00;;;;;;;0.93;0.85;;;;;;;19.79;69.67;99686.84;5061851;28;20048;-88
2022/06/07 03:49:26;;;;;;;1.40;0.73;;;;;;;19.82;69.98;99686.69;5055349;28;20082;-86
2022/06/07 03:51:52;;;;;;;1.55;0.63;;;;;;;20.00;69.96;99715.16;5068190;28;20040;-87
2022/06/07 03:54:17;;;;;;;3.20;1.88;;;;;;;19.91;70.11;99714.75;5069359;28;20037;-89
2022/06/07 03:56:44;;;;;;;1.55;0.70;;;;;;;20.08;70.44;99712.06;5068252;28;20051;-86
2022/06/07 03:59:09;;;;;;;1.80;1.08;;;;;;;20.07;70.65;99693.41;5066883;28;20469;-86
2022/06/07 04:01:35;;;;;;;1.00;0.80;;;;;;;20.12;69.39;99681.47;5069042;28;20032;-87
2022/06/07 04:04:05;;;;;;;0.60;0.60;;;;;;;20.35;69.20;99709.66;5069177;28;20033;-86
2022/06/07 04:06:36;;;;;;;2.38;1.42;;;;;;;20.21;69.97;99704.22;5066771;28;20057;-86
2022/06/07 04:09:03;;;;;;;1.02;0.65;;;;;;;20.37;70.28;99709.56;5055989;28;20091;-85
2022/06/07 04:11:29;;;;;;;0.80;0.77;;;;;;;20.25;70.56;99684.34;5062512;28;20425;-85
2022/06/07 04:13:56;;;;;;;1.67;0.98;;;;;;;20.21;69.45;99672.94;5067556;28;20033;-85
2022/06/07 04:16:24;;;;;;;3.03;1.48;;;;;;;20.46;68.71;99706.38;5059032;28;20119;-85
2022/06/07 04:18:50;;;;;;;1.38;0.88;;;;;;;20.59;67.74;99687.81;5070497;28;20845;-88
2022/06/07 04:21:18;;;;;;;1.55;1.10;;;;;;;20.95;67.46;99710.81;5062071;28;20517;-87
2022/06/07 04:23:45;;;;;;;1.05;0.82;;;;;;;21.20;67.38;99720.97;5050093;28;20094;-87
2022/06/07 04:26:18;;;;;;;1.98;1.30;;;;;;;21.20;66.19;99706.72;5050264;28;20036;-87
2022/06/07 04:28:43;;;;;;;0.55;0.55;;;;;;;21.12;66.61;99704.47;5049311;28;20065;-88
2022/06/07 04:31:13;;;;;;;2.05;1.25;;;;;;;21.35;68.04;99719.22;5057931;28;20122;-87
2022/06/07 04:33:39;;;;;;;2.53;1.35;;;;;;;21.46;66.68;99694.41;5068109;28;20673;-88
2022/06/07 04:36:19;;;;;;;0.98;0.70;;;;;;;21.66;65.30;99689.69;5067571;28;20036;-86
2022/06/07 04:38:46;;;;;;;1.13;0.80;;;;;;;21.80;64.12;99705.81;5058284;28;20025;-89
2022/06/07 04:41:14;;;;;;;1.75;1.20;;;;;;;21.93;63.11;99708.59;5074466;28;20039;-86
2022/06/07 04:43:39;;;;;;;1.58;1.10;;;;;;;21.71;62.11;99699.19;5076755;28;20028;-86
2022/06/07 04:46:10;;;;;;;1.55;0.90;;;;;;;21.85;62.31;99710.91;5080948;28;20042;-86
2022/06/07 04:48:38;;;;;;;1.45;0.60;;;;;;;21.90;62.03;99706.09;5087418;28;20048;-86
2022/06/07 04:51:21;;;;;;;1.15;0.75;;;;;;;22.26;62.35;99727.13;5081655;28;20028;-93
2022/06/07 04:53:48;;;;;;;1.10;0.80;;;;;;;22.43;61.50;99726.09;5048408;28;20032;-90
2022/06/07 04:56:19;;;;;;;1.92;1.00;;;;;;;22.34;59.46;99699.81;5046903;28;20060;-89
2022/06/07 04:58:45;;;;;;;1.20;0.80;;;;;;;22.66;60.00;99732.69;5058454;28;20040;-90
2022/06/07 05:01:12;;;;;;;2.13;0.90;;;;;;;22.73;58.69;99735.81;5067139;28;20020;-88
2022/06/07 05:03:37;;;;;;;1.77;1.05;;;;;;;22.49;59.25;99749.00;5066624;28;20032;-88
2022/06/07 05:06:14;;;;;;;1.45;0.98;;;;;;;22.61;58.80;99721.34;5053515;28;20059;-88
2022/06/07 05:08:40;;;;;;;0.75;0.60;;;;;;;22.97;58.21;99746.81;5061027;28;20058;-87
2022/06/07 05:11:08;;;;;;;1.17;0.85;;;;;;;23.03;56.11;99737.47;5057277;28;20036;-88
2022/06/07 05:13:37;;;;;;;1.45;0.63;;;;;;;23.12;56.60;99741.41;5065706;28;20037;-88
2022/06/07 05:16:03;;;;;;;1.42;0.85;;;;;;;23.27;56.60;99755.69;5066563;28;20097;-87
2022/06/07 05:18:29;;;;;;;1.05;0.88;;;;;;;23.20;56.76;99760.59;5066835;28;20024;-87
2022/06/07 05:20:54;;;;;;;0.75;0.70;;;;;;;23.17;57.54;99736.56;5066054;28;20032;-87
2022/06/07 05:23:20;;;;;;;1.45;1.13;;;;;;;23.42;56.07;99750.13;5067529;28;20041;-87
2022/06/07 05:26:06;;;;;;;1.10;1.00;;;;;;;23.25;55.85;99758.47;5066768;28;20119;-88
2022/06/07 05:28:33;;;;;;;2.65;1.05;;;;;;;23.86;53.77;99756.13;5066878;28;20533;-88
2022/06/07 05:30:59;;;;;;;0.68;0.68;;;;;;;24.23;53.80;99758.94;5067480;28;20036;-88
2022/06/07 05:33:24;;;;;;;1.23;0.55;;;;;;;24.26;52.51;99758.72;5052674;28;20118;-88
2022/06/07 05:35:50;;;;;;;1.95;1.13;;;;;;;24.04;50.52;99747.75;5047114;28;20120;-88
2022/06/07 05:38:16;;;;;;;1.20;1.08;;;;;;;23.76;51.57;99738.88;5047008;28;20506;-88
2022/06/07 05:40:41;;;;;;;1.38;0.82;;;;;;;24.04;50.94;99737.84;5046555;28;20380;-88
2022/06/07 05:43:08;;;;;;;0.90;0.65;;;;;;;24.02;53.54;99747.88;5046835;28;20546;-88
2022/06/07 05:45:33;;;;;;;0.90;0.80;;;;;;;24.03;51.49;99722.63;5056238;28;20032;-89
2022/06/07 05:47:59;;;;;;;1.13;0.88;;;;;;;24.53;48.92;99730.78;5059233;28;20119;-88
2022/06/07 05:50:26;;;;;;;0.85;0.70;;;;;;;24.52;47.57;99736.28;5045999;28;20037;-90
2022/06/07 05:52:52;;;;;;;1.15;0.90;;;;;;;24.85;47.71;99732.97;5045901;28;20068;-88
2022/06/07 05:55:17;;;;;;;1.15;0.95;;;;;;;25.23;46.86;99720.28;5049323;28;20532;-89
2022/06/07 05:57:49;;;;;;;1.08;0.80;;;;;;;25.58;43.71;99732.94;5057661;28;20033;-90
2022/06/07 06:00:16;;;;;;;0.85;0.70;;;;;;;25.51;43.30;99727.19;5057994;28;20487;-89
2022/06/07 06:02:41;;;;;;;1.23;0.82;;;;;;;25.44;44.07;99732.19;5066912;28;20029;-88
2022/06/07 06:05:07;;;;;;;0.40;0.40;;;;;;;25.24;43.39;99719.28;5057753;28;20045;-88
2022/06/07 06:07:33;;;;;;;1.13;0.70;;;;;;;25.71;44.95;99750.78;5055865;28;20162;-88
2022/06/07 06:12:42;;;;;;;0.60;0.50;;;;;;;26.18;42.66;99737.28;5057627;28;20040;-87
2022/06/07 06:15:08;;;;;;;1.25;0.80;;;;;;;26.01;42.26;99708.03;5055369;28;20037;-88
2022/06/07 06:17:34;;;;;;;0.82;0.80;;;;;;;26.13;40.62;99719.72;5058410;28;20067;-88
2022/06/07 06:20:00;;;;;;;0.80;0.70;;;;;;;26.09;40.41;99689.38;5070599;28;20120;-88
2022/06/07 06:22:27;;;;;;;4.85;0.90;;;;;;;26.45;40.30;99684.66;5054231;28;20151;-90
2022/06/07 06:24:53;;;;;;;2.20;1.55;;;;;;;26.14;43.02;99692.56;5050152;28;20028;-90
2022/06/07 06:27:18;;;;;;;2.10;1.20;;;;;;;25.32;45.49;99689.94;5050679;28;20029;-88
2022/06/07 06:29:44;;;;;;;1.15;0.63;;;;;;;25.20;47.55;99672.78;5050382;28;20039;-88
2022/06/07 06:32:09;;;;;;;1.05;0.80;;;;;;;25.38;43.24;99676.81;5049202;28;20052;-87
2022/06/07 06:34:35;;;;;;;1.17;0.65;;;;;;;26.30;41.61;99686.75;5050328;28;20043;-88
2022/06/07 06:37:01;;;;;;;0.75;0.68;;;;;;;26.77;41.45;99705.53;5050739;28;20461;-88
2022/06/07 06:39:27;;;;;;;1.48;0.90;;;;;;;27.21;40.01;99706.38;5050136;28;20029;-88
2022/06/07 06:41:53;;;;;;;1.55;0.85;;;;;;;26.14;46.87;99722.28;5050599;28;20057;-88
2022/06/07 06:44:19;;;;;;;1.50;1.20;;;;;;;26.33;45.49;99718.09;5050141;28;20518;-88
2022/06/07 06:46:47;;;;;;;1.45;0.88;;;;;;;26.91;40.98;99724.19;5049839;28;20021;-88
2022/06/07 06:49:14;;;;;;;1.38;1.25;;;;;;;27.25;38.90;99686.19;5050469;28;20033;-88
2022/06/07 06:51:41;;;;;;;2.03;1.23;;;;;;;27.28;39.66;99669.66;5050481;28;20033;-88
2022/06/07 06:54:09;;;;;;;0.80;0.80;;;;;;;27.63;40.17;99711.84;5050017;28;20085;-88
2022/06/07 06:56:35;;;;;;;2.38;1.23;;;;;;;28.37;37.60;99702.69;5049751;28;20041;-88
2022/06/07 06:59:01;;;;;;;1.10;1.00;;;;;;;28.65;34.23;99699.38;5049872;28;20118;-87
2022/06/07 07:01:32;;;;;;;1.45;1.30;;;;;;;28.43;34.67;99692.31;5049635;28;20565;-87
2022/06/07 07:04:04;;;;;;;1.38;1.20;;;;;;;28.86;33.83;99694.72;5048929;28;20040;-89
2022/06/07 07:06:31;;;;;;;0.98;0.82;;;;;;;29.17;33.26;99708.19;5047156;28;20049;-88
2022/06/07 07:08:58;;;;;;;1.17;1.00;;;;;;;29.32;32.82;99689.63;5049218;28;20033;-87
2022/06/07 07:11:31;;;;;;;0.82;0.77;;;;;;;29.23;34.14;99695.94;5049587;28;20056;-87
2022/06/07 07:13:59;;;;;;;1.33;0.88;;;;;;;29.63;34.13;99693.00;5049550;28;20103;-88
2022/06/07 07:16:31;;;;;;;1.90;1.13;;;;;;;29.84;33.91;99688.44;5032008;28;20040;-88
2022/06/07 07:18:58;;;;;;;0.77;0.47;;;;;;;29.84;32.64;99711.00;5048787;28;20045;-87
2022/06/07 07:21:33;;;;;;;1.05;0.90;;;;;;;29.52;32.37;99703.19;5048614;28;20041;-88
2022/06/07 07:23:59;;;;;;;;;;;;;;;29.19;33.52;99703.44;5048527;28;20514;-87
2022/06/07 07:26:27;;;;;;;0.63;0.55;;;;;;;28.98;33.08;99694.56;5049209;28;19916;-87
2022/06/07 07:28:53;;;;;;;2.78;1.02;;;;;;;28.97;33.96;99661.16;5049212;28;20491;-85
2022/06/07 07:31:25;;;;;;;0.55;0.55;;;;;;;29.13;33.63;99651.56;5049427;28;20116;-86
2022/06/07 07:33:51;;;;;;;0.80;0.73;;;;;;;29.41;33.58;99685.16;5048751;28;20511;-86
2022/06/07 07:36:17;;;;;;;1.23;0.70;;;;;;;29.79;32.26;99667.09;5048831;28;20147;-89
2022/06/07 07:38:43;;;;;;;0.60;0.50;;;;;;;29.77;33.12;99669.09;5049244;28;20095;-85
2022/06/07 07:41:19;;;;;;;0.95;0.55;;;;;;;29.56;33.95;99680.16;5050173;28;20040;-87
2022/06/07 07:43:46;;;;;;;0.40;0.40;;;;;;;29.49;33.55;99662.72;5069162;28;20052;-86
2022/06/07 07:46:12;;;;;;;0.55;0.55;;;;;;;29.78;33.36;99677.13;5069249;28;20087;-86
2022/06/07 07:48:38;;;;;;;0.65;0.65;;;;;;;29.69;33.90;99652.66;5069030;28;20152;-85
2022/06/07 07:51:05;;;;;;;1.25;0.55;;;;;;;29.87;31.94;99661.78;5069071;28;20035;-86
2022/06/07 07:53:32;;;;;;;0.88;0.52;;;;;;;29.81;32.87;99633.34;5069019;28;20182;-86
2022/06/07 07:55:57;;;;;;;3.42;1.00;;;;;;;29.89;32.29;99646.22;5068816;28;20626;-86
2022/06/07 07:58:23;;;;;;;0.63;0.52;;;;;;;29.88;33.01;99673.53;5066844;28;20083;-86
2022/06/07 08:00:49;;;;;;;0.82;0.55;;;;;;;29.97;32.05;99648.19;5069131;28;20035;-86
2022/06/07 08:03:16;;;;;;;0.85;0.60;;;;;;;30.03;35.22;99647.59;5068310;28;20028;-86
2022/06/07 08:05:43;;;;;;;0.93;0.70;;;;;;;30.08;31.57;99650.69;5068561;28;20059;-86
2022/06/07 08:08:10;;;;;;;0.65;0.50;;;;;;;30.56;30.32;99666.97;5068527;28;20025;-86
2022/06/07 08:10:36;;;;;;;0.40;0.40;;;;;;;30.66;29.74;99633.22;5068565;28;20460;-86
2022/06/07 08:13:03;;;;;;;1.13;0.50;;;;;;;30.77;29.40;99655.78;5053786;28;20585;-86
2022/06/07 08:15:31;;;;;;;0.65;0.65;;;;;;;31.09;28.46;99641.63;5048691;28;20025;-86
2022/06/07 08:17:57;;;;;;;1.08;0.63;;;;;;;31.08;29.76;99633.63;5048072;28;20044;-87
2022/06/07 08:20:24;;;;;;;0.70;0.60;;;;;;;30.39;32.61;99657.72;5048423;28;20120;-87
2022/06/07 08:22:50;;;;;;;0.70;0.68;;;;;;;30.44;33.05;99650.81;5048861;28;20029;-86
2022/06/07 08:25:17;;;;;;;1.55;0.40;;;;;;;29.73;31.96;99649.50;5048119;28;20033;-87
2022/06/07 08:27:42;;;;;;;1.08;0.70;;;;;;;30.11;34.04;99633.25;5048557;28;20115;-87
2022/06/07 08:30:09;;;;;;;0.55;0.50;;;;;;;30.61;33.84;99645.56;5048371;28;20135;-87
2022/06/07 08:32:35;;;;;;;0.80;0.50;;;;;;;30.95;31.17;99614.94;5047903;28;20041;-86
2022/06/07 08:37:46;;;;;;;0.40;0.38;;;;;;;30.10;33.35;99643.25;5047874;28;20043;-85
2022/06/07 08:40:19;;;;;;;0.63;0.50;;;;;;;29.85;31.74;99652.09;5048209;28;20037;-87
2022/06/07 08:42:51;;;;;;;0.50;0.50;;;;;;;29.74;31.65;99604.16;5047231;28;20091;-86
2022/06/07 08:45:21;;;;;;;0.52;0.50;;;;;;;29.49;33.56;99628.28;5047528;28;20069;-86
2022/06/07 08:47:55;;;;;;;2.22;0.90;;;;;;;30.06;32.58;99630.97;5047848;28;20029;-86
2022/06/07 08:50:25;;;;;;;0.90;0.52;;;;;;;30.48;31.52;99633.19;5057342;28;20048;-87
2022/06/07 08:52:55;;;;;;;0.60;0.60;;;;;;;29.99;31.75;99629.84;5067979;28;20029;-85
2022/06/07 08:55:46;;;;;;;0.40;0.40;;;;;;;30.35;30.99;99608.16;5067726;28;20110;-86
2022/06/07 08:58:19;;;;;;;0.70;0.57;;;;;;;30.39;28.92;99601.47;5066310;28;20148;-88
2022/06/07 09:00:51;;;;;;;0.55;0.45;;;;;;;30.26;31.50;99598.22;5067730;28;20046;-88
2022/06/07 09:03:46;;;;;;;0.38;0.32;;;;;;;30.01;31.15;99614.22;5062094;28;20040;-88
2022/06/07 09:06:19;;;;;;;;;;;;;;;30.18;31.92;99618.00;5010021;28;20140;-88
2022/06/07 09:08:52;;;;;;;0.83;0.73;;;;;;;30.63;30.58;99590.00;5027317;28;20338;-86
2022/06/07 09:14:07;;;;;;;0.60;0.52;;;;;;;30.49;31.33;99599.53;5008075;28;20076;-88
2022/06/07 09:16:37;;;;;;;1.10;0.80;;;;;;;30.76;31.62;99589.59;5007321;28;20045;-86
2022/06/07 09:19:09;;;;;;;1.10;0.73;;;;;;;30.79;30.62;99594.72;5007875;28;20099;-86
2022/06/07 09:21:39;;;;;;;0.63;0.57;;;;;;;30.56;30.56;99594.31;5019331;28;20144;-91
2022/06/07 09:24:20;;;;;;;1.17;0.77;;;;;;;30.97;30.10;99575.69;5026099;28;20487;-88
2022/06/07 09:26:46;;;;;;;1.02;0.70;;;;;;;30.44;31.42;99588.25;5025693;28;20029;-87
2022/06/07 09:29:22;;;;;;;1.17;0.73;;;;;;;30.95;30.09;99583.09;5027807;28;20609;-88
2022/06/07 09:31:50;;;;;;;0.88;0.68;;;;;;;31.54;27.97;99574.41;5026184;28;20029;-87
2022/06/07 09:34:29;;;;;;;0.88;0.40;;;;;;;31.30;28.96;99583.25;5026521;28;20037;-86
2022/06/07 09:37:05;;;;;;;0.95;0.75;;;;;;;30.97;27.78;99567.53;5026815;28;20128;-87
2022/06/07 09:39:41;;;;;;;0.50;0.45;;;;;;;31.27;27.63;99586.31;5026776;28;20026;-88
2022/06/07 09:42:24;;;;;;;0.40;0.40;;;;;;;30.83;32.38;99568.03;5026310;28;20031;-88
2022/06/07 09:45:19;;;;;;;0.50;0.50;;;;;;;31.88;28.63;99574.38;5027288;28;20059;-89
2022/06/07 09:47:45;;;;;;;0.40;0.40;;;;;;;32.01;27.67;99579.41;5026723;28;20041;-89
2022/06/07 09:50:23;;;;;;;1.23;0.60;;;;;;;31.95;29.30;99583.63;5041272;28;20391;-87
2022/06/07 09:52:56;;;;;;;0.32;0.32;;;;;;;31.96;27.75;99535.38;5018829;28;20132;-88
2022/06/07 09:55:32;;;;;;;0.45;0.43;;;;;;;31.52;27.42;99509.13;5005488;28;20424;-88
2022/06/07 09:58:09;;;;;;;0.88;0.68;;;;;;;31.37;27.34;99554.34;5006941;28;20504;-88
2022/06/07 10:00:55;;;;;;;0.95;0.43;;;;;;;31.73;27.69;99552.34;5005819;28;20795;-88
2022/06/07 10:03:41;;;;;;;0.60;0.55;;;;;;;31.01;28.94;99543.53;5018317;28;20033;-88
2022/06/07 10:06:17;;;;;;;1.63;1.10;;;;;;;30.74;31.93;99529.00;5053190;28;20040;-87
2022/06/07 10:09:06;;;;;;;0.55;0.38;;;;;;;30.85;30.15;99534.19;5057732;28;20047;-90
2022/06/07 10:11:44;;;;;;;0.70;0.45;;;;;;;31.27;30.66;99535.38;5060294;28;20045;-87
2022/06/07 10:14:23;;;;;;;0.40;0.40;;;;;;;30.40;31.72;99516.13;5046481;28;20044;-87
2022/06/07 10:17:22;;;;;;;0.73;0.55;;;;;;;29.91;31.29;99512.84;5045834;28;20124;-86
2022/06/07 10:20:07;;;;;;;0.70;0.60;;;;;;;30.68;29.78;99499.69;5046223;28;20569;-89
2022/06/07 10:22:45;;;;;;;1.20;0.63;;;;;;;30.36;29.20;99507.34;5045994;28;20033;-89
2022/06/07 10:25:27;;;;;;;0.70;0.60;;;;;;;30.27;31.69;99463.91;5046281;28;20029;-88
2022/06/07 10:27:55;;;;;;;1.55;0.60;;;;;;;30.53;30.46;99508.41;5045407;28;20032;-90
2022/06/07 10:30:42;;;;;;;0.95;0.80;;;;;;;30.41;31.71;99522.41;5046665;28;20079;-88
2022/06/07 10:33:33;;;;;;;0.57;0.43;;;;;;;30.84;29.78;99474.47;5055813;28;20426;-89
2022/06/07 10:36:03;;;;;;;1.33;0.70;;;;;;;30.45;29.50;99461.25;5060126;28;20052;-87
2022/06/07 10:38:47;;;;;;;0.77;0.68;;;;;;;30.35;30.78;99499.34;5065124;28;20383;-87
2022/06/07 10:42:02;;;;;;;0.47;0.43;;;;;;;30.35;30.21;99494.78;5065611;28;20067;-84
2022/06/07 10:44:38;;;;;;;1.33;1.05;;;;;;;30.37;30.48;99475.59;5004301;28;20153;-86
2022/06/07 10:47:35;;;;;;;0.52;0.52;;;;;;;30.61;28.91;99487.72;5063667;28;20177;-87
2022/06/07 10:50:29;;;;;;;1.17;0.60;;;;;;;30.51;30.71;99457.88;5057639;28;20098;-88
2022/06/07 10:53:19;;;;;;;0.95;0.60;;;;;;;30.73;30.98;99496.50;5044829;28;20049;-87
2022/06/07 10:55:53;;;;;;;0.75;0.70;;;;;;;31.08;29.69;99467.50;5045787;28;20045;-91
2022/06/07 10:58:25;;;;;;;0.50;0.50;;;;;;;31.38;29.70;99480.59;5047394;28;20097;-89
2022/06/07 11:01:05;;;;;;;0.98;0.77;;;;;;;30.42;28.75;99454.22;5050262;28;20207;-89
2022/06/07 11:03:43;;;;;;;1.33;0.88;;;;;;;31.35;27.56;99429.16;5033008;28;20048;-88
2022/06/07 11:09:21;;;;;;;;;;;;;;;31.75;28.48;99459.50;5050073;28;20059;-88
2022/06/07 11:12:02;;;;;;;1.17;0.93;;;;;;;31.57;29.51;99435.94;5049137;28;19920;-88
2022/06/07 11:14:41;;;;;;;1.13;0.52;;;;;;;31.83;27.42;99445.88;5048674;28;20107;-86
2022/06/07 11:17:16;;;;;;;0.60;0.60;;;;;;;31.71;28.55;99415.34;5049240;28;20060;-88
2022/06/07 11:19:42;;;;;;;0.60;0.57;;;;;;;31.12;28.05;99398.91;5049748;28;20128;-89
2022/06/07 11:22:16;;;;;;;0.70;0.70;;;;;;;30.98;28.87;99432.22;5049110;28;20024;-89
2022/06/07 11:25:20;;;;;;;0.77;0.75;;;;;;;30.86;28.74;99413.41;5048096;28;20595;-87
2022/06/07 11:27:53;;;;;;;;;;;;;;;30.89;29.04;99443.03;5049797;28;20063;-88
2022/06/07 11:30:27;;;;;;;0.98;0.75;;;;;;;31.15;30.16;99427.72;5049333;28;19923;-90
2022/06/07 11:32:56;;;;;;;1.30;0.73;;;;;;;30.87;27.81;99412.38;5048666;28;20029;-90
2022/06/07 11:35:48;;;;;;;1.33;0.80;;;;;;;30.52;29.28;99421.47;5047735;28;20462;-90
2022/06/07 11:38:17;;;;;;;0.77;0.40;;;;;;;30.66;28.16;99422.78;5048628;28;20072;-89
2022/06/07 11:40:43;;;;;;;0.93;0.82;;;;;;;30.52;28.95;99405.16;5049345;28;20114;-89
2022/06/07 11:43:48;;;;;;;1.35;0.85;;;;;;;30.59;28.25;99422.56;5048493;28;20029;-88
2022/06/07 11:46:35;;;;;;;0.75;0.60;;;;;;;30.62;28.40;99419.53;5047445;28;20760;-88
2022/06/07 11:51:54;;;;;;;5.00;1.80;;;;;;;31.56;27.65;99417.03;5048584;28;20037;-88
2022/06/07 11:54:28;;;;;;;0.77;0.65;;;;;;;31.09;29.40;99373.88;5048857;28;20275;-89
2022/06/07 11:56:58;;;;;;;0.50;0.50;;;;;;;30.43;28.27;99373.44;5049091;28;20045;-91
2022/06/07 11:59:25;;;;;;;1.13;0.73;;;;;;;30.63;29.90;99410.34;5048227;28;20037;-90
2022/06/07 12:02:02;;;;;;;1.50;1.17;;;;;;;31.62;29.06;99402.72;5049120;28;20040;-90
2022/06/07 12:04:45;;;;;;;1.90;1.13;;;;;;;32.00;28.57;99400.41;5048936;28;20616;-90
2022/06/07 12:07:48;;;;;;;0.80;0.80;;;;;;;31.51;30.22;99403.00;5048794;28;20036;-90
2022/06/07 12:10:16;;;;;;;1.27;0.70;;;;;;;31.09;27.73;99404.69;5048796;28;20039;-89